sensor_id;sensor_type;location;lat;lon;timestamp;P1;durP1;ratioP1;P2;durP2;ratioP2
18042;SDS011;9146;48.074;11.968;2023-04-08T00:00:29;14.37;;;9.70;;
18042;SDS011;9146;48.074;11.968;2023-04-08T00:02:56;11.70;;;9.40;;
18042;SDS011;9146;48.074;11.968;2023-04-08T00:05:23;14.00;;;10.57;;
18042;SDS011;9146;48.074;11.968;2023-04-08T00:07:50;12.97;;;10.33;;
18042;SDS011;9146;48.074;11.968;2023-04-08T00:10:17;11.83;;;10.27;;
18042;SDS011;9146;48.074;11.968;2023-04-08T00:12:46;17.93;;;10.07;;
18042;SDS011;9146;48.074;11.968;2023-04-08T00:15:13;14.60;;;9.77;;
18042;SDS011;9146;48.074;11.968;2023-04-08T00:17:40;12.97;;;9.63;;
18042;SDS011;9146;48.074;11.968;2023-04-08T00:20:07;13.83;;;9.30;;
18042;SDS011;9146;48.074;11.968;2023-04-08T00:22:35;12.10;;;10.10;;
18042;SDS011;9146;48.074;11.968;2023-04-08T00:25:03;15.27;;;11.67;;
18042;SDS011;9146;48.074;11.968;2023-04-08T00:27:33;14.03;;;10.10;;
18042;SDS011;9146;48.074;11.968;2023-04-08T00:30:01;17.53;;;11.40;;
18042;SDS011;9146;48.074;11.968;2023-04-08T00:32:30;14.70;;;10.00;;
18042;SDS011;9146;48.074;11.968;2023-04-08T00:34:57;13.30;;;10.77;;
18042;SDS011;9146;48.074;11.968;2023-04-08T00:37:23;16.10;;;10.90;;
18042;SDS011;9146;48.074;11.968;2023-04-08T00:39:51;13.60;;;10.20;;
18042;SDS011;9146;48.074;11.968;2023-04-08T00:42:18;13.70;;;10.77;;
18042;SDS011;9146;48.074;11.968;2023-04-08T00:44:46;13.37;;;10.43;;
18042;SDS011;9146;48.074;11.968;2023-04-08T00:47:14;13.60;;;9.53;;
18042;SDS011;9146;48.074;11.968;2023-04-08T00:49:41;13.67;;;10.13;;
18042;SDS011;9146;48.074;11.968;2023-04-08T00:52:09;13.60;;;9.63;;
18042;SDS011;9146;48.074;11.968;2023-04-08T00:54:36;12.00;;;9.97;;
18042;SDS011;9146;48.074;11.968;2023-04-08T00:57:03;14.87;;;10.83;;
18042;SDS011;9146;48.074;11.968;2023-04-08T00:59:31;17.20;;;11.47;;
18042;SDS011;9146;48.074;11.968;2023-04-08T01:02:02;16.13;;;10.13;;
18042;SDS011;9146;48.074;11.968;2023-04-08T01:04:41;17.03;;;10.20;;
18042;SDS011;9146;48.074;11.968;2023-04-08T01:07:16;15.80;;;10.43;;
18042;SDS011;9146;48.074;11.968;2023-04-08T01:09:47;17.23;;;10.67;;
18042;SDS011;9146;48.074;11.968;2023-04-08T01:12:18;15.80;;;10.30;;
18042;SDS011;9146;48.074;11.968;2023-04-08T01:14:51;15.43;;;10.80;;
18042;SDS011;9146;48.074;11.968;2023-04-08T01:17:28;12.17;;;9.70;;
18042;SDS011;9146;48.074;11.968;2023-04-08T01:19:57;14.07;;;9.80;;
18042;SDS011;9146;48.074;11.968;2023-04-08T01:22:27;13.47;;;9.13;;
18042;SDS011;9146;48.074;11.968;2023-04-08T01:25:01;15.20;;;9.40;;
18042;SDS011;9146;48.074;11.968;2023-04-08T01:27:33;13.07;;;10.17;;
18042;SDS011;9146;48.074;11.968;2023-04-08T01:30:02;13.00;;;10.03;;
18042;SDS011;9146;48.074;11.968;2023-04-08T01:32:30;10.63;;;9.23;;
18042;SDS011;9146;48.074;11.968;2023-04-08T01:34:57;10.47;;;8.70;;
18042;SDS011;9146;48.074;11.968;2023-04-08T01:37:25;13.10;;;8.97;;
18042;SDS011;9146;48.074;11.968;2023-04-08T01:39:54;14.20;;;9.80;;
18042;SDS011;9146;48.074;11.968;2023-04-08T01:42:23;11.47;;;9.80;;
18042;SDS011;9146;48.074;11.968;2023-04-08T01:44:54;9.33;;;7.83;;
18042;SDS011;9146;48.074;11.968;2023-04-08T01:47:23;11.40;;;8.27;;
18042;SDS011;9146;48.074;11.968;2023-04-08T01:49:51;10.17;;;9.00;;
18042;SDS011;9146;48.074;11.968;2023-04-08T01:52:19;10.00;;;8.70;;
18042;SDS011;9146;48.074;11.968;2023-04-08T01:54:47;9.03;;;7.63;;
18042;SDS011;9146;48.074;11.968;2023-04-08T01:57:16;10.43;;;8.50;;
18042;SDS011;9146;48.074;11.968;2023-04-08T01:59:49;11.70;;;9.30;;
18042;SDS011;9146;48.074;11.968;2023-04-08T02:02:20;10.50;;;8.30;;
18042;SDS011;9146;48.074;11.968;2023-04-08T02:04:52;10.43;;;7.97;;
18042;SDS011;9146;48.074;11.968;2023-04-08T02:07:19;10.80;;;8.40;;
18042;SDS011;9146;48.074;11.968;2023-04-08T02:09:46;11.63;;;8.03;;
18042;SDS011;9146;48.074;11.968;2023-04-08T02:12:13;10.57;;;8.67;;
18042;SDS011;9146;48.074;11.968;2023-04-08T02:14:40;10.23;;;8.87;;
18042;SDS011;9146;48.074;11.968;2023-04-08T02:17:08;11.07;;;8.40;;
18042;SDS011;9146;48.074;11.968;2023-04-08T02:19:43;8.37;;;7.50;;
18042;SDS011;9146;48.074;11.968;2023-04-08T02:22:16;10.10;;;7.57;;
18042;SDS011;9146;48.074;11.968;2023-04-08T02:24:45;9.53;;;8.53;;
18042;SDS011;9146;48.074;11.968;2023-04-08T02:27:13;10.77;;;8.90;;
18042;SDS011;9146;48.074;11.968;2023-04-08T02:29:43;11.10;;;8.63;;
18042;SDS011;9146;48.074;11.968;2023-04-08T02:32:12;9.27;;;7.17;;
18042;SDS011;9146;48.074;11.968;2023-04-08T02:34:42;10.50;;;8.43;;
18042;SDS011;9146;48.074;11.968;2023-04-08T02:37:10;9.50;;;7.77;;
18042;SDS011;9146;48.074;11.968;2023-04-08T02:39:37;11.83;;;8.67;;
18042;SDS011;9146;48.074;11.968;2023-04-08T02:42:04;10.53;;;8.17;;
18042;SDS011;9146;48.074;11.968;2023-04-08T02:44:31;11.23;;;8.30;;
18042;SDS011;9146;48.074;11.968;2023-04-08T02:46:58;9.57;;;8.30;;
18042;SDS011;9146;48.074;11.968;2023-04-08T02:49:25;10.27;;;8.57;;
18042;SDS011;9146;48.074;11.968;2023-04-08T02:51:53;9.70;;;7.70;;
18042;SDS011;9146;48.074;11.968;2023-04-08T02:54:20;14.50;;;8.80;;
18042;SDS011;9146;48.074;11.968;2023-04-08T02:56:47;16.23;;;9.10;;
18042;SDS011;9146;48.074;11.968;2023-04-08T02:59:14;15.47;;;9.80;;
18042;SDS011;9146;48.074;11.968;2023-04-08T03:01:41;9.03;;;8.00;;
18042;SDS011;9146;48.074;11.968;2023-04-08T03:04:08;10.90;;;8.20;;
18042;SDS011;9146;48.074;11.968;2023-04-08T03:06:35;15.63;;;8.60;;
18042;SDS011;9146;48.074;11.968;2023-04-08T03:09:03;14.70;;;9.87;;
18042;SDS011;9146;48.074;11.968;2023-04-08T03:11:31;12.43;;;8.30;;
18042;SDS011;9146;48.074;11.968;2023-04-08T03:13:58;11.43;;;8.47;;
18042;SDS011;9146;48.074;11.968;2023-04-08T03:16:25;10.17;;;8.60;;
18042;SDS011;9146;48.074;11.968;2023-04-08T03:18:52;11.00;;;8.73;;
18042;SDS011;9146;48.074;11.968;2023-04-08T03:21:19;13.70;;;9.63;;
18042;SDS011;9146;48.074;11.968;2023-04-08T03:23:46;13.07;;;9.30;;
18042;SDS011;9146;48.074;11.968;2023-04-08T03:26:14;13.50;;;10.43;;
18042;SDS011;9146;48.074;11.968;2023-04-08T03:28:41;12.93;;;9.10;;
18042;SDS011;9146;48.074;11.968;2023-04-08T03:31:08;10.83;;;9.07;;
18042;SDS011;9146;48.074;11.968;2023-04-08T03:33:35;12.03;;;8.93;;
18042;SDS011;9146;48.074;11.968;2023-04-08T03:36:02;10.53;;;8.53;;
18042;SDS011;9146;48.074;11.968;2023-04-08T03:38:29;16.13;;;8.80;;
18042;SDS011;9146;48.074;11.968;2023-04-08T03:40:56;14.63;;;8.80;;
18042;SDS011;9146;48.074;11.968;2023-04-08T03:43:24;13.40;;;9.77;;
18042;SDS011;9146;48.074;11.968;2023-04-08T03:45:51;13.80;;;9.97;;
18042;SDS011;9146;48.074;11.968;2023-04-08T03:48:18;15.20;;;10.13;;
18042;SDS011;9146;48.074;11.968;2023-04-08T03:50:45;13.93;;;10.33;;
18042;SDS011;9146;48.074;11.968;2023-04-08T03:53:12;13.40;;;9.97;;
18042;SDS011;9146;48.074;11.968;2023-04-08T03:55:39;16.03;;;10.00;;
18042;SDS011;9146;48.074;11.968;2023-04-08T03:58:06;13.53;;;10.50;;
18042;SDS011;9146;48.074;11.968;2023-04-08T04:00:35;15.53;;;10.30;;
18042;SDS011;9146;48.074;11.968;2023-04-08T04:03:02;11.87;;;10.10;;
18042;SDS011;9146;48.074;11.968;2023-04-08T04:05:29;14.50;;;11.97;;
18042;SDS011;9146;48.074;11.968;2023-04-08T04:07:56;15.03;;;10.90;;
18042;SDS011;9146;48.074;11.968;2023-04-08T04:10:23;13.90;;;10.67;;
18042;SDS011;9146;48.074;11.968;2023-04-08T04:12:50;14.50;;;10.07;;
18042;SDS011;9146;48.074;11.968;2023-04-08T04:15:18;13.50;;;10.77;;
18042;SDS011;9146;48.074;11.968;2023-04-08T04:17:47;15.53;;;10.77;;
18042;SDS011;9146;48.074;11.968;2023-04-08T04:20:15;14.90;;;11.00;;
18042;SDS011;9146;48.074;11.968;2023-04-08T04:22:42;16.13;;;11.07;;
18042;SDS011;9146;48.074;11.968;2023-04-08T04:25:09;17.07;;;10.60;;
18042;SDS011;9146;48.074;11.968;2023-04-08T04:27:36;15.20;;;10.77;;
18042;SDS011;9146;48.074;11.968;2023-04-08T04:30:03;14.43;;;11.83;;
18042;SDS011;9146;48.074;11.968;2023-04-08T04:32:31;15.70;;;9.90;;
18042;SDS011;9146;48.074;11.968;2023-04-08T04:35:00;14.63;;;11.00;;
18042;SDS011;9146;48.074;11.968;2023-04-08T04:37:27;16.20;;;12.37;;
18042;SDS011;9146;48.074;11.968;2023-04-08T04:39:54;18.40;;;11.37;;
18042;SDS011;9146;48.074;11.968;2023-04-08T04:42:21;14.50;;;10.97;;
18042;SDS011;9146;48.074;11.968;2023-04-08T04:44:48;14.93;;;11.07;;
18042;SDS011;9146;48.074;11.968;2023-04-08T04:47:15;15.40;;;11.53;;
18042;SDS011;9146;48.074;11.968;2023-04-08T04:49:42;16.20;;;11.73;;
18042;SDS011;9146;48.074;11.968;2023-04-08T04:52:11;15.50;;;11.37;;
18042;SDS011;9146;48.074;11.968;2023-04-08T04:54:38;14.70;;;11.47;;
18042;SDS011;9146;48.074;11.968;2023-04-08T04:57:05;16.10;;;12.47;;
18042;SDS011;9146;48.074;11.968;2023-04-08T04:59:32;17.97;;;11.43;;
18042;SDS011;9146;48.074;11.968;2023-04-08T05:01:59;16.23;;;12.10;;
18042;SDS011;9146;48.074;11.968;2023-04-08T05:04:26;14.23;;;12.03;;
18042;SDS011;9146;48.074;11.968;2023-04-08T05:06:53;18.03;;;13.53;;
18042;SDS011;9146;48.074;11.968;2023-04-08T05:09:21;14.10;;;12.10;;
18042;SDS011;9146;48.074;11.968;2023-04-08T05:11:48;19.10;;;11.40;;
18042;SDS011;9146;48.074;11.968;2023-04-08T05:14:15;16.27;;;12.37;;
18042;SDS011;9146;48.074;11.968;2023-04-08T05:16:42;12.37;;;10.67;;
18042;SDS011;9146;48.074;11.968;2023-04-08T05:19:09;12.57;;;10.40;;
18042;SDS011;9146;48.074;11.968;2023-04-08T05:21:36;15.00;;;11.57;;
18042;SDS011;9146;48.074;11.968;2023-04-08T05:24:03;15.47;;;12.90;;
18042;SDS011;9146;48.074;11.968;2023-04-08T05:26:32;21.10;;;12.27;;
18042;SDS011;9146;48.074;11.968;2023-04-08T05:28:59;15.93;;;11.63;;
18042;SDS011;9146;48.074;11.968;2023-04-08T05:31:26;19.90;;;12.13;;
18042;SDS011;9146;48.074;11.968;2023-04-08T05:33:53;17.90;;;11.23;;
18042;SDS011;9146;48.074;11.968;2023-04-08T05:36:20;20.07;;;13.37;;
18042;SDS011;9146;48.074;11.968;2023-04-08T05:38:47;18.73;;;12.10;;
18042;SDS011;9146;48.074;11.968;2023-04-08T05:41:14;15.50;;;11.33;;
18042;SDS011;9146;48.074;11.968;2023-04-08T05:43:43;21.53;;;14.10;;
18042;SDS011;9146;48.074;11.968;2023-04-08T05:46:10;18.73;;;13.90;;
18042;SDS011;9146;48.074;11.968;2023-04-08T05:48:37;17.50;;;13.60;;
18042;SDS011;9146;48.074;11.968;2023-04-08T05:51:04;20.90;;;14.23;;
18042;SDS011;9146;48.074;11.968;2023-04-08T05:53:30;16.77;;;12.17;;
18042;SDS011;9146;48.074;11.968;2023-04-08T05:55:57;18.27;;;13.40;;
18042;SDS011;9146;48.074;11.968;2023-04-08T05:58:24;17.70;;;13.30;;
18042;SDS011;9146;48.074;11.968;2023-04-08T06:00:53;17.57;;;13.87;;
18042;SDS011;9146;48.074;11.968;2023-04-08T06:03:20;16.73;;;13.07;;
18042;SDS011;9146;48.074;11.968;2023-04-08T06:05:47;18.83;;;14.07;;
18042;SDS011;9146;48.074;11.968;2023-04-08T06:08:14;18.20;;;13.00;;
18042;SDS011;9146;48.074;11.968;2023-04-08T06:10:47;16.57;;;12.40;;
18042;SDS011;9146;48.074;11.968;2023-04-08T06:13:14;16.83;;;12.33;;
18042;SDS011;9146;48.074;11.968;2023-04-08T06:15:41;16.70;;;12.87;;
18042;SDS011;9146;48.074;11.968;2023-04-08T06:18:10;17.40;;;12.87;;
18042;SDS011;9146;48.074;11.968;2023-04-08T06:20:37;17.27;;;13.03;;
18042;SDS011;9146;48.074;11.968;2023-04-08T06:23:04;16.70;;;12.43;;
18042;SDS011;9146;48.074;11.968;2023-04-08T06:25:31;15.67;;;11.90;;
18042;SDS011;9146;48.074;11.968;2023-04-08T06:27:58;19.90;;;14.13;;
18042;SDS011;9146;48.074;11.968;2023-04-08T06:30:25;18.87;;;11.53;;
18042;SDS011;9146;48.074;11.968;2023-04-08T06:32:52;17.27;;;12.70;;
18042;SDS011;9146;48.074;11.968;2023-04-08T06:35:20;16.67;;;12.23;;
18042;SDS011;9146;48.074;11.968;2023-04-08T06:37:47;18.80;;;13.70;;
18042;SDS011;9146;48.074;11.968;2023-04-08T06:40:14;15.33;;;12.40;;
18042;SDS011;9146;48.074;11.968;2023-04-08T06:42:41;21.70;;;12.70;;
18042;SDS011;9146;48.074;11.968;2023-04-08T06:45:09;18.53;;;13.20;;
18042;SDS011;9146;48.074;11.968;2023-04-08T06:47:37;14.93;;;12.73;;
18042;SDS011;9146;48.074;11.968;2023-04-08T06:50:04;20.47;;;12.73;;
18042;SDS011;9146;48.074;11.968;2023-04-08T06:52:33;19.30;;;12.57;;
18042;SDS011;9146;48.074;11.968;2023-04-08T06:55:00;15.17;;;12.10;;
18042;SDS011;9146;48.074;11.968;2023-04-08T06:57:27;13.70;;;11.50;;
18042;SDS011;9146;48.074;11.968;2023-04-08T06:59:54;18.50;;;12.90;;
18042;SDS011;9146;48.074;11.968;2023-04-08T07:02:21;18.33;;;13.13;;
18042;SDS011;9146;48.074;11.968;2023-04-08T07:04:48;16.43;;;12.47;;
18042;SDS011;9146;48.074;11.968;2023-04-08T07:07:15;15.97;;;12.30;;
18042;SDS011;9146;48.074;11.968;2023-04-08T07:09:44;17.43;;;12.80;;
18042;SDS011;9146;48.074;11.968;2023-04-08T07:12:11;20.80;;;15.50;;
18042;SDS011;9146;48.074;11.968;2023-04-08T07:14:38;15.33;;;13.47;;
18042;SDS011;9146;48.074;11.968;2023-04-08T07:17:05;17.87;;;15.17;;
18042;SDS011;9146;48.074;11.968;2023-04-08T07:19:32;18.57;;;13.57;;
18042;SDS011;9146;48.074;11.968;2023-04-08T07:22:00;18.03;;;13.33;;
18042;SDS011;9146;48.074;11.968;2023-04-08T07:24:27;21.17;;;14.63;;
18042;SDS011;9146;48.074;11.968;2023-04-08T07:26:55;19.40;;;15.57;;
18042;SDS011;9146;48.074;11.968;2023-04-08T07:29:22;19.00;;;14.07;;
18042;SDS011;9146;48.074;11.968;2023-04-08T07:31:49;19.17;;;13.83;;
18042;SDS011;9146;48.074;11.968;2023-04-08T07:34:16;16.17;;;13.20;;
18042;SDS011;9146;48.074;11.968;2023-04-08T07:36:43;19.73;;;11.40;;
18042;SDS011;9146;48.074;11.968;2023-04-08T07:39:10;13.33;;;10.27;;
18042;SDS011;9146;48.074;11.968;2023-04-08T07:41:37;9.87;;;8.77;;
18042;SDS011;9146;48.074;11.968;2023-04-08T07:44:06;14.07;;;9.90;;
18042;SDS011;9146;48.074;11.968;2023-04-08T07:46:35;11.50;;;9.43;;
18042;SDS011;9146;48.074;11.968;2023-04-08T07:49:02;13.57;;;10.77;;
18042;SDS011;9146;48.074;11.968;2023-04-08T07:51:29;16.80;;;12.07;;
18042;SDS011;9146;48.074;11.968;2023-04-08T07:53:58;17.73;;;12.87;;
18042;SDS011;9146;48.074;11.968;2023-04-08T07:56:25;17.97;;;12.73;;
18042;SDS011;9146;48.074;11.968;2023-04-08T07:58:52;20.50;;;14.60;;
18042;SDS011;9146;48.074;11.968;2023-04-08T08:01:21;19.90;;;14.63;;
18042;SDS011;9146;48.074;11.968;2023-04-08T08:03:48;22.33;;;16.07;;
18042;SDS011;9146;48.074;11.968;2023-04-08T08:06:16;23.57;;;16.40;;
18042;SDS011;9146;48.074;11.968;2023-04-08T08:08:44;21.00;;;16.17;;
18042;SDS011;9146;48.074;11.968;2023-04-08T08:11:11;28.03;;;18.30;;
18042;SDS011;9146;48.074;11.968;2023-04-08T08:13:38;23.73;;;17.57;;
18042;SDS011;9146;48.074;11.968;2023-04-08T08:16:05;25.03;;;18.13;;
18042;SDS011;9146;48.074;11.968;2023-04-08T08:18:36;24.47;;;17.63;;
18042;SDS011;9146;48.074;11.968;2023-04-08T08:21:04;25.97;;;17.40;;
18042;SDS011;9146;48.074;11.968;2023-04-08T08:23:31;30.00;;;18.43;;
18042;SDS011;9146;48.074;11.968;2023-04-08T08:25:58;27.00;;;18.13;;
18042;SDS011;9146;48.074;11.968;2023-04-08T08:28:26;28.37;;;19.60;;
18042;SDS011;9146;48.074;11.968;2023-04-08T08:30:53;29.40;;;21.00;;
18042;SDS011;9146;48.074;11.968;2023-04-08T08:33:20;28.00;;;19.10;;
18042;SDS011;9146;48.074;11.968;2023-04-08T08:35:49;34.13;;;19.77;;
18042;SDS011;9146;48.074;11.968;2023-04-08T08:38:16;37.33;;;20.70;;
18042;SDS011;9146;48.074;11.968;2023-04-08T08:40:43;28.33;;;18.37;;
18042;SDS011;9146;48.074;11.968;2023-04-08T08:43:10;33.23;;;20.83;;
18042;SDS011;9146;48.074;11.968;2023-04-08T08:45:38;32.40;;;21.47;;
18042;SDS011;9146;48.074;11.968;2023-04-08T08:48:06;27.80;;;18.40;;
18042;SDS011;9146;48.074;11.968;2023-04-08T08:50:33;30.00;;;20.17;;
18042;SDS011;9146;48.074;11.968;2023-04-08T08:53:02;34.40;;;21.80;;
18042;SDS011;9146;48.074;11.968;2023-04-08T08:55:30;33.20;;;21.10;;
18042;SDS011;9146;48.074;11.968;2023-04-08T08:57:58;38.03;;;21.70;;
18042;SDS011;9146;48.074;11.968;2023-04-08T09:00:32;33.47;;;21.97;;
18042;SDS011;9146;48.074;11.968;2023-04-08T09:05:49;36.07;;;22.60;;
18042;SDS011;9146;48.074;11.968;2023-04-08T09:08:26;38.77;;;22.17;;
18042;SDS011;9146;48.074;11.968;2023-04-08T09:10:55;34.93;;;22.60;;
18042;SDS011;9146;48.074;11.968;2023-04-08T09:13:35;37.13;;;23.23;;
18042;SDS011;9146;48.074;11.968;2023-04-08T09:16:03;42.80;;;22.90;;
18042;SDS011;9146;48.074;11.968;2023-04-08T09:18:32;44.27;;;24.73;;
18042;SDS011;9146;48.074;11.968;2023-04-08T09:20:59;46.10;;;25.60;;
18042;SDS011;9146;48.074;11.968;2023-04-08T09:23:39;41.23;;;25.07;;
18042;SDS011;9146;48.074;11.968;2023-04-08T09:26:07;37.67;;;23.50;;
18042;SDS011;9146;48.074;11.968;2023-04-08T09:28:35;44.67;;;25.33;;
18042;SDS011;9146;48.074;11.968;2023-04-08T09:31:09;36.60;;;24.57;;
18042;SDS011;9146;48.074;11.968;2023-04-08T09:33:47;36.17;;;25.33;;
18042;SDS011;9146;48.074;11.968;2023-04-08T09:36:14;37.10;;;24.80;;
18042;SDS011;9146;48.074;11.968;2023-04-08T09:38:43;37.57;;;24.20;;
18042;SDS011;9146;48.074;11.968;2023-04-08T09:41:12;39.83;;;24.10;;
18042;SDS011;9146;48.074;11.968;2023-04-08T09:43:41;38.23;;;26.63;;
18042;SDS011;9146;48.074;11.968;2023-04-08T09:46:13;32.87;;;21.87;;
18042;SDS011;9146;48.074;11.968;2023-04-08T09:48:43;39.70;;;25.23;;
18042;SDS011;9146;48.074;11.968;2023-04-08T09:51:14;44.97;;;26.47;;
18042;SDS011;9146;48.074;11.968;2023-04-08T09:53:46;42.00;;;25.57;;
18042;SDS011;9146;48.074;11.968;2023-04-08T09:56:16;34.30;;;22.23;;
18042;SDS011;9146;48.074;11.968;2023-04-08T09:58:48;35.00;;;22.23;;
18042;SDS011;9146;48.074;11.968;2023-04-08T10:01:21;37.77;;;23.60;;
18042;SDS011;9146;48.074;11.968;2023-04-08T10:03:54;31.40;;;22.03;;
18042;SDS011;9146;48.074;11.968;2023-04-08T10:06:25;29.33;;;20.63;;
18042;SDS011;9146;48.074;11.968;2023-04-08T10:08:56;29.57;;;20.50;;
18042;SDS011;9146;48.074;11.968;2023-04-08T10:11:24;24.47;;;19.03;;
18042;SDS011;9146;48.074;11.968;2023-04-08T10:13:51;26.70;;;18.20;;
18042;SDS011;9146;48.074;11.968;2023-04-08T10:16:22;24.00;;;17.40;;
18042;SDS011;9146;48.074;11.968;2023-04-08T10:18:51;23.13;;;17.70;;
18042;SDS011;9146;48.074;11.968;2023-04-08T10:21:36;21.40;;;15.97;;
18042;SDS011;9146;48.074;11.968;2023-04-08T10:24:12;18.73;;;15.20;;
18042;SDS011;9146;48.074;11.968;2023-04-08T10:26:39;20.97;;;16.17;;
18042;SDS011;9146;48.074;11.968;2023-04-08T10:29:29;23.23;;;17.97;;
18042;SDS011;9146;48.074;11.968;2023-04-08T10:31:59;20.77;;;16.30;;
18042;SDS011;9146;48.074;11.968;2023-04-08T10:34:27;22.23;;;16.40;;
18042;SDS011;9146;48.074;11.968;2023-04-08T10:36:55;20.80;;;16.43;;
18042;SDS011;9146;48.074;11.968;2023-04-08T10:39:27;22.27;;;17.13;;
18042;SDS011;9146;48.074;11.968;2023-04-08T10:41:56;20.53;;;17.10;;
18042;SDS011;9146;48.074;11.968;2023-04-08T10:44:26;18.60;;;15.67;;
18042;SDS011;9146;48.074;11.968;2023-04-08T10:46:53;20.80;;;15.67;;
18042;SDS011;9146;48.074;11.968;2023-04-08T10:49:20;19.90;;;16.30;;
18042;SDS011;9146;48.074;11.968;2023-04-08T10:51:48;22.73;;;14.47;;
18042;SDS011;9146;48.074;11.968;2023-04-08T10:54:15;21.30;;;17.20;;
18042;SDS011;9146;48.074;11.968;2023-04-08T10:56:45;21.80;;;16.27;;
18042;SDS011;9146;48.074;11.968;2023-04-08T10:59:13;23.20;;;15.90;;
18042;SDS011;9146;48.074;11.968;2023-04-08T11:01:42;21.40;;;17.90;;
18042;SDS011;9146;48.074;11.968;2023-04-08T11:04:11;22.13;;;15.90;;
18042;SDS011;9146;48.074;11.968;2023-04-08T11:06:44;28.17;;;18.37;;
18042;SDS011;9146;48.074;11.968;2023-04-08T11:09:12;22.97;;;16.87;;
18042;SDS011;9146;48.074;11.968;2023-04-08T11:11:40;27.00;;;18.73;;
18042;SDS011;9146;48.074;11.968;2023-04-08T11:14:10;31.60;;;19.73;;
18042;SDS011;9146;48.074;11.968;2023-04-08T11:16:37;25.57;;;19.33;;
18042;SDS011;9146;48.074;11.968;2023-04-08T11:19:05;29.57;;;19.60;;
18042;SDS011;9146;48.074;11.968;2023-04-08T11:21:36;28.83;;;19.13;;
18042;SDS011;9146;48.074;11.968;2023-04-08T11:24:10;30.70;;;22.17;;
18042;SDS011;9146;48.074;11.968;2023-04-08T11:26:40;27.40;;;20.07;;
18042;SDS011;9146;48.074;11.968;2023-04-08T11:29:09;28.03;;;21.03;;
18042;SDS011;9146;48.074;11.968;2023-04-08T11:31:39;33.70;;;21.30;;
18042;SDS011;9146;48.074;11.968;2023-04-08T11:34:06;25.20;;;20.23;;
18042;SDS011;9146;48.074;11.968;2023-04-08T11:36:34;27.67;;;19.80;;
18042;SDS011;9146;48.074;11.968;2023-04-08T11:39:05;27.13;;;20.93;;
18042;SDS011;9146;48.074;11.968;2023-04-08T11:41:36;27.63;;;21.33;;
18042;SDS011;9146;48.074;11.968;2023-04-08T11:44:04;25.87;;;19.63;;
18042;SDS011;9146;48.074;11.968;2023-04-08T11:46:33;25.03;;;18.37;;
18042;SDS011;9146;48.074;11.968;2023-04-08T11:49:04;28.70;;;20.37;;
18042;SDS011;9146;48.074;11.968;2023-04-08T11:51:33;30.73;;;19.30;;
18042;SDS011;9146;48.074;11.968;2023-04-08T11:54:03;26.93;;;19.90;;
18042;SDS011;9146;48.074;11.968;2023-04-08T11:56:42;24.93;;;19.53;;
18042;SDS011;9146;48.074;11.968;2023-04-08T11:59:10;31.43;;;20.47;;
18042;SDS011;9146;48.074;11.968;2023-04-08T12:01:38;28.43;;;21.33;;
18042;SDS011;9146;48.074;11.968;2023-04-08T12:04:05;32.07;;;22.80;;
18042;SDS011;9146;48.074;11.968;2023-04-08T12:06:34;24.70;;;19.57;;
18042;SDS011;9146;48.074;11.968;2023-04-08T12:09:01;26.40;;;19.90;;
18042;SDS011;9146;48.074;11.968;2023-04-08T12:11:28;29.87;;;21.80;;
18042;SDS011;9146;48.074;11.968;2023-04-08T12:13:55;28.67;;;21.10;;
18042;SDS011;9146;48.074;11.968;2023-04-08T12:16:23;27.17;;;19.97;;
18042;SDS011;9146;48.074;11.968;2023-04-08T12:18:51;23.60;;;18.40;;
18042;SDS011;9146;48.074;11.968;2023-04-08T12:21:18;21.70;;;17.77;;
18042;SDS011;9146;48.074;11.968;2023-04-08T12:23:45;23.43;;;17.33;;
18042;SDS011;9146;48.074;11.968;2023-04-08T12:26:12;22.40;;;17.70;;
18042;SDS011;9146;48.074;11.968;2023-04-08T12:28:39;17.53;;;15.37;;
18042;SDS011;9146;48.074;11.968;2023-04-08T12:31:06;18.00;;;14.00;;
18042;SDS011;9146;48.074;11.968;2023-04-08T12:33:33;19.80;;;15.33;;
18042;SDS011;9146;48.074;11.968;2023-04-08T12:36:02;18.83;;;14.87;;
18042;SDS011;9146;48.074;11.968;2023-04-08T12:38:29;19.33;;;14.30;;
18042;SDS011;9146;48.074;11.968;2023-04-08T12:40:57;19.47;;;14.87;;
18042;SDS011;9146;48.074;11.968;2023-04-08T12:43:24;17.43;;;14.07;;
18042;SDS011;9146;48.074;11.968;2023-04-08T12:45:51;16.73;;;14.47;;
18042;SDS011;9146;48.074;11.968;2023-04-08T12:48:18;17.27;;;12.93;;
18042;SDS011;9146;48.074;11.968;2023-04-08T12:50:45;14.90;;;11.77;;
18042;SDS011;9146;48.074;11.968;2023-04-08T12:53:13;16.30;;;13.30;;
18042;SDS011;9146;48.074;11.968;2023-04-08T12:55:40;17.40;;;14.83;;
18042;SDS011;9146;48.074;11.968;2023-04-08T12:58:07;18.03;;;13.07;;
18042;SDS011;9146;48.074;11.968;2023-04-08T13:00:34;15.50;;;12.97;;
18042;SDS011;9146;48.074;11.968;2023-04-08T13:03:02;16.33;;;13.47;;
18042;SDS011;9146;48.074;11.968;2023-04-08T13:05:30;17.77;;;13.37;;
18042;SDS011;9146;48.074;11.968;2023-04-08T13:07:57;20.10;;;15.70;;
18042;SDS011;9146;48.074;11.968;2023-04-08T13:10:25;19.17;;;13.83;;
18042;SDS011;9146;48.074;11.968;2023-04-08T13:12:52;17.53;;;13.73;;
18042;SDS011;9146;48.074;11.968;2023-04-08T13:15:19;20.03;;;13.97;;
18042;SDS011;9146;48.074;11.968;2023-04-08T13:17:46;18.10;;;14.47;;
18042;SDS011;9146;48.074;11.968;2023-04-08T13:20:13;18.83;;;13.90;;
18042;SDS011;9146;48.074;11.968;2023-04-08T13:22:41;21.10;;;14.03;;
18042;SDS011;9146;48.074;11.968;2023-04-08T13:25:08;18.07;;;14.73;;
18042;SDS011;9146;48.074;11.968;2023-04-08T13:27:36;19.20;;;14.10;;
18042;SDS011;9146;48.074;11.968;2023-04-08T13:30:03;18.60;;;14.20;;
18042;SDS011;9146;48.074;11.968;2023-04-08T13:32:31;20.30;;;15.53;;
18042;SDS011;9146;48.074;11.968;2023-04-08T13:34:58;18.93;;;14.93;;
18042;SDS011;9146;48.074;11.968;2023-04-08T13:37:25;20.07;;;14.70;;
18042;SDS011;9146;48.074;11.968;2023-04-08T13:39:52;22.33;;;16.20;;
18042;SDS011;9146;48.074;11.968;2023-04-08T13:42:19;26.77;;;17.00;;
18042;SDS011;9146;48.074;11.968;2023-04-08T13:44:47;22.67;;;17.10;;
18042;SDS011;9146;48.074;11.968;2023-04-08T13:47:14;21.27;;;16.23;;
18042;SDS011;9146;48.074;11.968;2023-04-08T13:49:41;26.00;;;17.00;;
18042;SDS011;9146;48.074;11.968;2023-04-08T13:52:08;24.67;;;16.70;;
18042;SDS011;9146;48.074;11.968;2023-04-08T13:54:35;26.17;;;17.60;;
18042;SDS011;9146;48.074;11.968;2023-04-08T13:57:02;27.67;;;18.83;;
18042;SDS011;9146;48.074;11.968;2023-04-08T13:59:29;26.20;;;17.80;;
18042;SDS011;9146;48.074;11.968;2023-04-08T14:01:58;23.27;;;17.60;;
18042;SDS011;9146;48.074;11.968;2023-04-08T14:04:26;24.90;;;16.57;;
18042;SDS011;9146;48.074;11.968;2023-04-08T14:06:53;28.53;;;18.00;;
18042;SDS011;9146;48.074;11.968;2023-04-08T14:09:24;28.67;;;19.10;;
18042;SDS011;9146;48.074;11.968;2023-04-08T14:11:53;25.83;;;17.63;;
18042;SDS011;9146;48.074;11.968;2023-04-08T14:14:20;29.00;;;18.40;;
18042;SDS011;9146;48.074;11.968;2023-04-08T14:16:47;30.57;;;20.60;;
18042;SDS011;9146;48.074;11.968;2023-04-08T14:19:15;30.57;;;17.43;;
18042;SDS011;9146;48.074;11.968;2023-04-08T14:21:42;26.53;;;18.87;;
18042;SDS011;9146;48.074;11.968;2023-04-08T14:24:09;30.87;;;18.87;;
18042;SDS011;9146;48.074;11.968;2023-04-08T14:26:36;24.43;;;17.20;;
18042;SDS011;9146;48.074;11.968;2023-04-08T14:29:03;24.57;;;17.20;;
18042;SDS011;9146;48.074;11.968;2023-04-08T14:31:31;28.53;;;18.53;;